createdAt,value
2022-08-17T00:00:34.603Z,13.82
2022-08-17T00:03:09.974Z,13.55
2022-08-17T00:05:45.789Z,14.07
2022-08-17T00:08:17.230Z,13.77
2022-08-17T00:10:46.547Z,13.82
2022-08-17T00:13:18.644Z,15.20
2022-08-17T00:15:47.040Z,14.38
2022-08-17T00:19:01.132Z,14.13
2022-08-17T00:21:10.704Z,14.55
2022-08-17T00:23:44.288Z,15.00
2022-08-17T00:26:16.058Z,15.00
2022-08-17T00:29:04.378Z,16.33
2022-08-17T00:31:32.422Z,16.77
2022-08-17T00:34:00.322Z,15.73
2022-08-17T00:36:28.667Z,16.40
2022-08-17T00:38:57.768Z,16.38
2022-08-17T00:41:27.629Z,15.10
2022-08-17T00:44:00.873Z,15.77
2022-08-17T00:46:32.085Z,16.13
2022-08-17T00:49:00.316Z,18.10
2022-08-17T00:51:34.076Z,16.00
2022-08-17T00:54:07.998Z,18.33
2022-08-17T00:56:40.916Z,16.58
2022-08-17T00:59:11.169Z,17.77
2022-08-17T01:01:39.919Z,16.92
2022-08-17T01:04:09.491Z,16.73
2022-08-17T01:06:37.609Z,18.63
2022-08-17T01:09:08.643Z,18.73
2022-08-17T01:11:40.530Z,18.33
2022-08-17T01:14:09.291Z,19.88
2022-08-17T01:16:38.340Z,18.00
2022-08-17T01:19:16.121Z,19.35
2022-08-17T01:21:51.411Z,18.30
2022-08-17T01:24:20.978Z,18.27
2022-08-17T01:26:49.088Z,16.73
2022-08-17T01:29:16.948Z,18.00
2022-08-17T01:31:48.210Z,20.98
2022-08-17T01:34:17.926Z,20.45
2022-08-17T01:36:47.990Z,22.73
2022-08-17T01:39:24.231Z,24.30
2022-08-17T01:41:56.254Z,24.90
2022-08-17T01:44:26.514Z,22.17
2022-08-17T01:46:56.538Z,22.08
2022-08-17T01:49:24.490Z,23.48
2022-08-17T01:51:52.587Z,19.25
2022-08-17T01:54:22.331Z,22.30
2022-08-17T01:56:52.849Z,22.98
2022-08-17T01:59:21.570Z,18.98
2022-08-17T02:01:50.388Z,23.70
2022-08-17T02:04:18.235Z,22.55
2022-08-17T02:06:53.532Z,22.23
2022-08-17T02:09:26.102Z,21.80
2022-08-17T02:11:58.392Z,24.25
2022-08-17T02:14:26.483Z,23.38
2022-08-17T02:16:56.090Z,23.38
2022-08-17T02:19:24.001Z,23.25
2022-08-17T02:21:53.910Z,23.67
2022-08-17T02:24:58.853Z,22.58
2022-08-17T02:27:14.592Z,24.08
2022-08-17T02:29:42.398Z,22.80
2022-08-17T02:32:25.315Z,22.55
2022-08-17T02:34:55.694Z,23.48
2022-08-17T02:37:23.511Z,22.88
2022-08-17T02:39:52.721Z,23.60
2022-08-17T02:42:26.191Z,22.17
2022-08-17T02:44:53.851Z,22.23
2022-08-17T02:47:21.628Z,23.27
2022-08-17T02:49:55.513Z,23.13
2022-08-17T02:52:43.056Z,22.63
2022-08-17T02:55:16.246Z,22.63
2022-08-17T02:57:44.142Z,23.08
2022-08-17T03:00:15.461Z,23.05
2022-08-17T03:02:45.128Z,22.75
2022-08-17T03:05:14.484Z,23.27
2022-08-17T03:07:43.096Z,23.55
2022-08-17T03:10:13.677Z,24.13
2022-08-17T03:12:43.465Z,25.92
2022-08-17T03:15:15.687Z,24.85
2022-08-17T03:17:43.749Z,23.73
2022-08-17T03:20:12.954Z,24.40
2022-08-17T03:22:42.807Z,22.77
2022-08-17T03:25:22.708Z,24.30
2022-08-17T03:27:51.476Z,25.92
2022-08-17T03:30:21.240Z,25.23
2022-08-17T03:32:51.042Z,24.42
2022-08-17T03:35:22.285Z,24.50
2022-08-17T03:38:00.000Z,24.73
2022-08-17T03:40:41.811Z,24.88
2022-08-17T03:43:20.210Z,25.23
2022-08-17T03:46:06.154Z,23.52
2022-08-17T03:48:56.350Z,26.05
2022-08-17T03:51:43.204Z,25.15
2022-08-17T03:54:30.012Z,25.10
2022-08-17T03:57:04.670Z,27.00
2022-08-17T03:59:33.235Z,27.10
2022-08-17T04:02:09.961Z,25.98
2022-08-17T04:04:39.084Z,25.77
2022-08-17T04:07:07.407Z,26.00
2022-08-17T04:09:36.451Z,25.15
2022-08-17T04:12:06.799Z,27.20
2022-08-17T04:14:51.811Z,23.73
2022-08-17T04:17:22.578Z,26.67
2022-08-17T04:19:50.217Z,24.40
2022-08-17T04:22:30.189Z,25.90
2022-08-17T04:25:06.474Z,25.25
2022-08-17T04:27:35.903Z,26.27
2022-08-17T04:30:03.769Z,27.27
2022-08-17T04:33:05.406Z,25.85
2022-08-17T04:35:21.479Z,25.13
2022-08-17T04:37:49.454Z,25.20
2022-08-17T04:40:35.875Z,25.48
2022-08-17T04:43:07.417Z,23.80
2022-08-17T04:45:39.134Z,24.83
2022-08-17T04:48:07.148Z,24.55
2022-08-17T04:50:35.831Z,24.73
2022-08-17T04:53:03.792Z,25.70
2022-08-17T04:55:31.421Z,26.02
2022-08-17T04:57:59.183Z,26.05
2022-08-17T05:00:28.389Z,24.73
2022-08-17T05:02:56.956Z,23.67
2022-08-17T05:05:27.531Z,24.73
2022-08-17T05:07:57.076Z,26.42
2022-08-17T05:10:27.491Z,24.58
2022-08-17T05:12:59.740Z,23.80
2022-08-17T05:15:29.773Z,23.90
2022-08-17T05:18:01.431Z,26.15
2022-08-17T05:20:30.126Z,23.63
2022-08-17T05:23:00.111Z,23.48
2022-08-17T05:25:29.643Z,23.42
2022-08-17T05:28:02.115Z,23.73
2022-08-17T05:30:31.299Z,23.00
2022-08-17T05:33:03.104Z,24.27
2022-08-17T05:35:32.778Z,25.02
2022-08-17T05:38:00.920Z,23.80
2022-08-17T05:40:32.777Z,22.73
2022-08-17T05:43:10.102Z,22.80
2022-08-17T05:45:55.117Z,20.70
2022-08-17T05:48:35.812Z,21.92
2022-08-17T05:51:25.456Z,22.95
2022-08-17T05:54:04.846Z,21.40
2022-08-17T05:56:46.857Z,21.20
2022-08-17T05:59:25.278Z,20.38
2022-08-17T06:02:03.859Z,21.20
2022-08-17T06:04:42.078Z,19.20
2022-08-17T06:07:17.305Z,19.00
2022-08-17T06:09:50.668Z,19.88
2022-08-17T06:12:41.101Z,20.73
2022-08-17T06:15:23.699Z,21.05
2022-08-17T06:17:57.208Z,18.90
2022-08-17T06:20:28.474Z,19.88
2022-08-17T06:23:04.069Z,20.48
2022-08-17T06:25:37.877Z,18.77
2022-08-17T06:28:09.281Z,19.60
2022-08-17T06:30:59.337Z,18.60
2022-08-17T06:33:38.405Z,20.15
2022-08-17T06:36:18.191Z,18.08
2022-08-17T06:38:54.771Z,19.75
2022-08-17T06:41:30.214Z,18.98
2022-08-17T06:44:50.110Z,19.25
2022-08-17T06:47:09.055Z,16.80
2022-08-17T06:49:54.652Z,19.67
2022-08-17T06:52:46.047Z,16.35
2022-08-17T06:55:21.341Z,18.23
2022-08-17T06:57:53.755Z,17.90
2022-08-17T07:00:24.825Z,16.67
2022-08-17T07:02:58.697Z,17.67
2022-08-17T07:05:33.772Z,16.70
2022-08-17T07:08:05.641Z,14.60
2022-08-17T07:10:39.153Z,16.50
2022-08-17T07:13:25.436Z,14.85
2022-08-17T07:15:59.401Z,14.73
2022-08-17T07:18:33.129Z,14.85
2022-08-17T07:21:14.123Z,15.52
2022-08-17T07:24:01.006Z,14.07
2022-08-17T07:26:29.548Z,13.88
2022-08-17T07:28:57.352Z,13.93
2022-08-17T07:31:27.041Z,14.40
2022-08-17T07:34:06.636Z,12.80
2022-08-17T07:36:35.785Z,14.27
2022-08-17T07:39:04.894Z,12.88
2022-08-17T07:41:53.439Z,14.10
2022-08-17T07:44:26.162Z,12.98
2022-08-17T07:47:13.157Z,13.32
2022-08-17T07:49:44.778Z,13.35
2022-08-17T07:52:51.458Z,12.30
2022-08-17T07:55:27.819Z,11.43
2022-08-17T07:57:58.049Z,10.63
2022-08-17T08:00:32.770Z,11.27
2022-08-17T08:03:05.936Z,10.98
2022-08-17T08:05:49.537Z,10.30
2022-08-17T08:08:34.022Z,9.02
2022-08-17T08:11:08.321Z,9.00
2022-08-17T08:13:42.458Z,10.32
2022-08-17T08:16:29.687Z,10.65
2022-08-17T08:18:59.303Z,9.48
2022-08-17T08:21:41.006Z,9.05
2022-08-17T08:24:37.282Z,10.02
2022-08-17T08:27:16.027Z,9.18
2022-08-17T08:29:53.941Z,8.20
2022-08-17T08:32:45.462Z,9.50
2022-08-17T08:35:22.741Z,8.50
2022-08-17T08:37:57.963Z,8.73
2022-08-17T08:40:38.444Z,9.32
2022-08-17T08:43:17.535Z,8.05
2022-08-17T08:45:56.635Z,8.02
2022-08-17T08:48:58.179Z,7.72
2022-08-17T08:51:38.111Z,7.75
2022-08-17T08:54:14.918Z,8.40
2022-08-17T08:57:11.979Z,6.93
2022-08-17T08:59:57.621Z,7.28
2022-08-17T09:02:54.408Z,6.68
2022-08-17T09:05:36.542Z,7.00
2022-08-17T09:08:13.715Z,6.38
2022-08-17T09:10:54.041Z,6.85
2022-08-17T09:13:29.544Z,6.82
2022-08-17T09:16:03.835Z,7.70
2022-08-17T09:18:59.418Z,6.15
2022-08-17T09:21:27.964Z,6.47
2022-08-17T09:24:11.295Z,6.65
2022-08-17T09:26:43.589Z,6.53
2022-08-17T09:29:17.638Z,6.30
2022-08-17T09:31:55.058Z,6.28
2022-08-17T09:34:31.922Z,5.95
2022-08-17T09:37:12.101Z,5.95
2022-08-17T09:39:44.308Z,6.40
2022-08-17T09:42:16.994Z,6.18
2022-08-17T09:44:54.930Z,6.72
2022-08-17T09:47:30.465Z,6.53
2022-08-17T09:50:03.679Z,6.45
2022-08-17T09:52:32.797Z,6.53
2022-08-17T09:55:01.769Z,6.60
2022-08-17T09:57:40.637Z,6.68
2022-08-17T10:00:18.789Z,6.75
2022-08-17T10:03:00.478Z,6.68
2022-08-17T10:05:37.646Z,6.93
2022-08-17T10:08:12.458Z,6.97
2022-08-17T10:10:56.691Z,7.25
2022-08-17T10:13:36.182Z,6.25
2022-08-17T10:16:12.342Z,6.70
2022-08-17T10:18:50.144Z,7.32
2022-08-17T10:21:37.677Z,6.57
2022-08-17T10:24:28.492Z,6.60
2022-08-17T10:27:01.106Z,6.68
2022-08-17T10:29:44.168Z,7.35
2022-08-17T10:32:26.478Z,7.07
2022-08-17T10:35:07.618Z,7.25
2022-08-17T10:37:50.378Z,7.00
2022-08-17T10:40:26.605Z,6.40
2022-08-17T10:43:00.223Z,6.88
2022-08-17T10:45:34.852Z,7.20
2022-08-17T10:48:36.543Z,6.75
2022-08-17T10:51:10.536Z,7.07
2022-08-17T10:54:08.690Z,7.18
2022-08-17T10:56:50.369Z,6.88
2022-08-17T10:59:51.649Z,6.97
2022-08-17T11:02:26.079Z,7.65
2022-08-17T11:05:20.518Z,6.47
2022-08-17T11:08:05.257Z,6.72
2022-08-17T11:10:56.848Z,6.40
2022-08-17T11:13:38.623Z,6.05
2022-08-17T11:16:24.027Z,6.13
2022-08-17T11:19:27.556Z,6.85
2022-08-17T11:22:11.340Z,5.85
2022-08-17T11:24:44.689Z,6.40
2022-08-17T11:27:25.911Z,5.85
2022-08-17T11:30:01.402Z,5.80
2022-08-17T11:32:37.626Z,6.07
2022-08-17T11:35:26.821Z,5.85
2022-08-17T11:38:08.690Z,6.18
2022-08-17T11:40:52.907Z,5.80
2022-08-17T11:43:48.249Z,6.72
2022-08-17T11:46:24.570Z,6.22
2022-08-17T11:49:21.598Z,5.53
2022-08-17T11:52:15.394Z,5.63
2022-08-17T11:54:47.261Z,6.53
2022-08-17T11:58:06.404Z,5.80
2022-08-17T12:00:56.552Z,6.20
2022-08-17T12:03:42.472Z,5.72
2022-08-17T12:06:31.707Z,6.30
2022-08-17T12:09:03.120Z,7.03
2022-08-17T12:11:55.461Z,5.82
2022-08-17T12:15:05.921Z,6.43
2022-08-17T12:17:39.578Z,5.88
2022-08-17T12:20:16.304Z,5.80
2022-08-17T12:22:53.725Z,6.32
2022-08-17T12:25:27.365Z,6.00
2022-08-17T12:28:06.871Z,6.68
2022-08-17T12:30:36.562Z,6.65
2022-08-17T12:33:04.565Z,6.13
2022-08-17T12:35:39.018Z,5.93
2022-08-17T12:38:32.785Z,6.25
2022-08-17T12:40:58.323Z,6.35
2022-08-17T12:43:32.738Z,6.60
2022-08-17T12:46:13.340Z,6.15
2022-08-17T12:48:58.826Z,5.63
2022-08-17T12:51:28.958Z,6.15
2022-08-17T12:53:56.915Z,5.57
2022-08-17T12:56:24.734Z,5.78
2022-08-17T12:58:55.517Z,5.63
2022-08-17T13:01:25.098Z,6.47
2022-08-17T13:03:59.698Z,5.68
2022-08-17T13:06:31.516Z,6.10
2022-08-17T13:09:10.241Z,5.82
2022-08-17T13:11:49.521Z,5.47
2022-08-17T13:14:19.300Z,6.20
2022-08-17T13:16:55.607Z,5.75
2022-08-17T13:19:39.970Z,5.82
2022-08-17T13:22:12.364Z,6.00
2022-08-17T13:24:54.040Z,5.85
2022-08-17T13:27:24.086Z,5.32
2022-08-17T13:29:57.128Z,5.68
2022-08-17T13:32:37.056Z,5.60
2022-08-17T13:35:39.751Z,5.80
2022-08-17T13:38:10.338Z,6.10
2022-08-17T13:40:52.944Z,5.47
2022-08-17T13:43:44.420Z,5.90
2022-08-17T13:46:21.498Z,5.68
2022-08-17T13:48:59.982Z,5.85
2022-08-17T13:51:31.665Z,5.45
2022-08-17T13:54:09.317Z,5.85
2022-08-17T13:56:49.992Z,6.00
2022-08-17T13:59:53.170Z,6.35
2022-08-17T14:02:20.428Z,5.78
2022-08-17T14:04:49.375Z,5.82
2022-08-17T14:07:29.357Z,5.90
2022-08-17T14:10:00.169Z,5.55
2022-08-17T14:12:31.190Z,6.20
2022-08-17T14:14:59.423Z,6.10
2022-08-17T14:17:34.943Z,5.45
2022-08-17T14:20:09.165Z,5.95
2022-08-17T14:22:39.646Z,6.13
2022-08-17T14:25:10.446Z,6.35
2022-08-17T14:27:51.869Z,5.97
2022-08-17T14:30:22.837Z,6.05
2022-08-17T14:32:52.897Z,6.03
2022-08-17T14:35:23.150Z,5.57
2022-08-17T14:37:51.720Z,5.68
2022-08-17T14:40:24.988Z,6.22
2022-08-17T14:42:55.176Z,6.28
2022-08-17T14:45:31.487Z,6.00
2022-08-17T14:48:05.825Z,6.60
2022-08-17T14:50:35.294Z,6.30
2022-08-17T14:53:04.495Z,6.15
2022-08-17T14:55:32.423Z,5.38
2022-08-17T14:58:00.355Z,5.97
2022-08-17T15:00:28.558Z,6.25
2022-08-17T15:02:58.860Z,6.13
2022-08-17T15:05:31.817Z,6.32
2022-08-17T15:08:00.826Z,6.07
2022-08-17T15:10:29.769Z,5.85
2022-08-17T15:12:57.879Z,5.85
2022-08-17T15:15:25.941Z,6.57
2022-08-17T15:17:53.809Z,6.63
2022-08-17T15:20:24.726Z,6.28
2022-08-17T15:22:55.338Z,6.00
2022-08-17T15:25:24.638Z,5.88
2022-08-17T15:27:52.738Z,6.07
2022-08-17T15:30:21.684Z,6.07
2022-08-17T15:32:54.519Z,6.22
2022-08-17T15:35:27.717Z,5.82
2022-08-17T15:38:04.620Z,6.10
2022-08-17T15:40:36.813Z,6.60
2022-08-17T15:43:08.421Z,7.43
2022-08-17T15:45:36.227Z,6.82
2022-08-17T15:48:04.701Z,6.93
2022-08-17T15:50:32.614Z,6.68
2022-08-17T15:53:03.460Z,6.35
2022-08-17T15:55:33.242Z,7.13
2022-08-17T15:58:01.821Z,7.13
2022-08-17T16:00:29.955Z,8.00
2022-08-17T16:03:20.308Z,7.22
2022-08-17T16:05:47.677Z,7.80
2022-08-17T16:08:20.904Z,7.45
2022-08-17T16:10:50.071Z,8.73
2022-08-17T16:13:19.478Z,8.90
2022-08-17T16:15:56.623Z,8.80
2022-08-17T16:18:30.705Z,8.90
2022-08-17T16:21:18.892Z,8.35
2022-08-17T16:23:48.510Z,8.38
2022-08-17T16:26:16.387Z,9.30
2022-08-17T16:28:44.105Z,9.00
2022-08-17T16:31:12.179Z,8.05
2022-08-17T16:33:40.300Z,8.90
2022-08-17T16:36:08.938Z,8.40
2022-08-17T16:38:38.705Z,9.32
2022-08-17T16:41:07.851Z,8.38
2022-08-17T16:43:36.122Z,8.65
2022-08-17T16:46:03.885Z,9.32
2022-08-17T16:48:31.978Z,8.43
2022-08-17T16:51:03.060Z,8.43
2022-08-17T16:53:33.750Z,8.45
2022-08-17T16:56:01.490Z,7.97
2022-08-17T16:58:30.613Z,7.95
2022-08-17T17:00:59.474Z,9.40
2022-08-17T17:03:30.111Z,8.57
2022-08-17T17:06:08.065Z,8.73
2022-08-17T17:08:44.061Z,7.85
2022-08-17T17:11:25.933Z,8.70
2022-08-17T17:13:57.819Z,7.63
2022-08-17T17:16:35.949Z,7.38
2022-08-17T17:19:11.206Z,7.20
2022-08-17T17:21:56.415Z,7.88
2022-08-17T17:24:30.994Z,8.10
2022-08-17T17:27:24.382Z,6.75
2022-08-17T17:30:03.269Z,7.60
2022-08-17T17:32:38.130Z,7.90
2022-08-17T17:35:11.044Z,7.88
2022-08-17T17:37:40.943Z,8.02
2022-08-17T17:40:16.236Z,7.13
2022-08-17T17:42:45.535Z,8.13
2022-08-17T17:45:23.274Z,8.95
2022-08-17T17:47:51.473Z,9.45
2022-08-17T17:50:22.350Z,7.88
2022-08-17T17:53:00.233Z,7.93
2022-08-17T17:55:38.370Z,7.60
2022-08-17T17:58:14.643Z,8.57
2022-08-17T18:00:50.665Z,8.30
2022-08-17T18:03:27.241Z,8.35
2022-08-17T18:06:09.746Z,8.10
2022-08-17T18:08:52.148Z,7.50
2022-08-17T18:11:35.274Z,7.75
2022-08-17T18:14:15.286Z,7.35
2022-08-17T18:16:48.011Z,7.00
2022-08-17T18:19:20.062Z,7.03
2022-08-17T18:21:53.693Z,6.70
2022-08-17T18:24:30.784Z,7.15
2022-08-17T18:27:00.761Z,7.90
2022-08-17T18:29:36.094Z,5.10
2022-08-17T18:32:31.375Z,5.57
2022-08-17T18:35:02.591Z,4.80
2022-08-17T18:37:38.254Z,4.22
2022-08-17T18:40:41.942Z,3.83
2022-08-17T18:43:14.313Z,3.70
2022-08-17T18:45:46.300Z,4.78
2022-08-17T18:48:28.873Z,5.75
2022-08-17T18:50:59.616Z,4.90
2022-08-17T18:53:34.078Z,5.95
2022-08-17T18:56:26.807Z,6.70
2022-08-17T18:59:03.039Z,6.03
2022-08-17T19:01:47.126Z,6.35
2022-08-17T19:04:35.176Z,7.47
2022-08-17T19:07:13.856Z,8.68
2022-08-17T19:09:45.441Z,10.70
2022-08-17T19:12:27.498Z,10.75
2022-08-17T19:14:57.549Z,10.55
2022-08-17T19:17:33.215Z,9.57
2022-08-17T19:20:07.010Z,9.63
2022-08-17T19:22:49.517Z,9.52
2022-08-17T19:25:23.933Z,8.55
2022-08-17T19:28:01.567Z,9.13
2022-08-17T19:30:31.104Z,9.82
2022-08-17T19:32:58.968Z,9.60
2022-08-17T19:35:43.483Z,10.02
2022-08-17T19:38:25.358Z,9.57
2022-08-17T19:41:01.892Z,8.80
2022-08-17T19:43:44.247Z,8.93
2022-08-17T19:46:20.041Z,8.27
2022-08-17T19:48:53.103Z,8.38
2022-08-17T19:51:31.426Z,8.45
2022-08-17T19:54:06.946Z,8.23
2022-08-17T19:56:43.370Z,7.90
2022-08-17T19:59:16.790Z,7.95
2022-08-17T20:01:51.055Z,9.13
2022-08-17T20:04:31.978Z,8.43
2022-08-17T20:07:05.516Z,8.75
2022-08-17T20:09:39.192Z,8.65
2022-08-17T20:12:11.317Z,9.43
2022-08-17T20:14:53.394Z,10.10
2022-08-17T20:17:24.770Z,9.90
2022-08-17T20:20:06.215Z,9.52
2022-08-17T20:22:52.371Z,8.95
2022-08-17T20:25:30.435Z,8.20
2022-08-17T20:28:05.721Z,9.15
2022-08-17T20:30:38.347Z,8.15
2022-08-17T20:33:09.051Z,8.75
2022-08-17T20:36:00.174Z,9.15
2022-08-17T20:38:41.792Z,8.38
2022-08-17T20:41:15.264Z,8.00
2022-08-17T20:43:48.974Z,7.07
2022-08-17T20:46:56.878Z,7.35
2022-08-17T20:49:28.725Z,7.10
2022-08-17T20:52:02.490Z,7.45
2022-08-17T20:54:50.899Z,8.02
2022-08-17T20:57:49.166Z,8.13
2022-08-17T21:00:50.210Z,7.50
2022-08-17T21:03:52.130Z,7.47
2022-08-17T21:06:23.139Z,7.50
2022-08-17T21:08:54.696Z,6.70
2022-08-17T21:12:03.306Z,6.47
2022-08-17T21:14:41.890Z,6.60
2022-08-17T21:17:29.491Z,6.57
2022-08-17T21:20:17.638Z,6.68
2022-08-17T21:22:57.641Z,6.32
2022-08-17T21:25:52.050Z,6.85
2022-08-17T21:28:34.302Z,6.65
2022-08-17T21:31:09.074Z,7.05
2022-08-17T21:33:38.884Z,6.43
2022-08-17T21:36:24.633Z,6.95
2022-08-17T21:39:02.357Z,6.97
2022-08-17T21:41:36.250Z,6.47
2022-08-17T21:44:13.869Z,7.00
2022-08-17T21:46:46.760Z,6.47
2022-08-17T21:49:17.805Z,6.35
2022-08-17T21:51:50.375Z,6.63
2022-08-17T21:54:30.839Z,6.70
2022-08-17T21:57:00.985Z,6.20
2022-08-17T21:59:32.909Z,6.13
2022-08-17T22:02:03.072Z,5.57
2022-08-17T22:04:32.614Z,6.20
2022-08-17T22:07:02.559Z,6.47
2022-08-17T22:09:32.477Z,6.68
2022-08-17T22:12:04.034Z,6.70
2022-08-17T22:14:52.888Z,6.38
2022-08-17T22:17:24.605Z,5.68
2022-08-17T22:19:54.836Z,6.43
2022-08-17T22:22:34.205Z,6.10
2022-08-17T22:25:04.244Z,6.18
2022-08-17T22:27:52.001Z,5.68
2022-08-17T22:30:28.331Z,5.95
2022-08-17T22:32:56.455Z,5.63
2022-08-17T22:35:37.189Z,6.03
2022-08-17T22:38:30.973Z,5.32
2022-08-17T22:41:26.514Z,5.70
2022-08-17T22:43:57.424Z,5.05
2022-08-17T22:46:27.302Z,5.75
2022-08-17T22:48:57.638Z,5.32
2022-08-17T22:51:29.393Z,5.60
2022-08-17T22:54:19.201Z,5.40
2022-08-17T22:57:14.829Z,4.97
2022-08-17T22:59:49.380Z,5.10
2022-08-17T23:02:28.386Z,4.95
2022-08-17T23:05:21.566Z,5.30
2022-08-17T23:07:52.740Z,4.75
2022-08-17T23:10:20.849Z,5.00
2022-08-17T23:12:48.610Z,4.43
2022-08-17T23:15:19.052Z,4.93
2022-08-17T23:17:47.725Z,4.60
2022-08-17T23:20:17.509Z,4.63
2022-08-17T23:22:52.325Z,4.10
2022-08-17T23:25:26.800Z,4.38
2022-08-17T23:27:55.217Z,4.63
2022-08-17T23:30:24.890Z,4.00
2022-08-17T23:32:53.975Z,3.72
2022-08-17T23:35:39.917Z,3.95
2022-08-17T23:38:12.344Z,3.40
2022-08-17T23:40:40.939Z,3.13
2022-08-17T23:43:23.348Z,2.80
2022-08-17T23:45:54.057Z,2.83
2022-08-17T23:48:28.574Z,3.70
2022-08-17T23:51:09.737Z,2.90
2022-08-17T23:53:42.087Z,3.25
2022-08-17T23:56:11.621Z,2.72
2022-08-17T23:58:42.064Z,3.28
